sensor_id;sensor_type;location;lat;lon;timestamp;P1;durP1;ratioP1;P2;durP2;ratioP2
64887;SDS011;51386;53.082;8.816;2022-07-23T00:00:31;6.73;;;1.73;;
64887;SDS011;51386;53.082;8.816;2022-07-23T00:03:05;5.37;;;2.07;;
64887;SDS011;51386;53.082;8.816;2022-07-23T00:05:32;2.60;;;1.70;;
64887;SDS011;51386;53.082;8.816;2022-07-23T00:08:00;3.77;;;1.80;;
64887;SDS011;51386;53.082;8.816;2022-07-23T00:10:28;4.20;;;1.90;;
64887;SDS011;51386;53.082;8.816;2022-07-23T00:12:57;2.00;;;1.50;;
64887;SDS011;51386;53.082;8.816;2022-07-23T00:15:24;2.40;;;1.47;;
64887;SDS011;51386;53.082;8.816;2022-07-23T00:17:51;2.83;;;1.83;;
64887;SDS011;51386;53.082;8.816;2022-07-23T00:20:19;7.23;;;2.20;;
64887;SDS011;51386;53.082;8.816;2022-07-23T00:22:47;4.40;;;2.07;;
64887;SDS011;51386;53.082;8.816;2022-07-23T00:25:15;3.30;;;2.10;;
64887;SDS011;51386;53.082;8.816;2022-07-23T00:28:00;1.83;;;1.57;;
64887;SDS011;51386;53.082;8.816;2022-07-23T00:30:29;3.70;;;1.67;;
64887;SDS011;51386;53.082;8.816;2022-07-23T00:32:59;2.93;;;1.47;;
64887;SDS011;51386;53.082;8.816;2022-07-23T00:35:30;2.43;;;1.33;;
64887;SDS011;51386;53.082;8.816;2022-07-23T00:37:59;2.37;;;1.73;;
64887;SDS011;51386;53.082;8.816;2022-07-23T00:40:28;3.77;;;1.77;;
64887;SDS011;51386;53.082;8.816;2022-07-23T00:42:57;3.60;;;1.60;;
64887;SDS011;51386;53.082;8.816;2022-07-23T00:45:27;3.23;;;1.67;;
64887;SDS011;51386;53.082;8.816;2022-07-23T00:47:55;2.03;;;1.50;;
64887;SDS011;51386;53.082;8.816;2022-07-23T00:50:22;2.53;;;1.60;;
64887;SDS011;51386;53.082;8.816;2022-07-23T00:52:50;3.33;;;1.80;;
64887;SDS011;51386;53.082;8.816;2022-07-23T00:55:19;2.60;;;1.90;;
64887;SDS011;51386;53.082;8.816;2022-07-23T00:57:47;5.53;;;1.93;;
64887;SDS011;51386;53.082;8.816;2022-07-23T01:00:17;2.10;;;1.47;;
64887;SDS011;51386;53.082;8.816;2022-07-23T01:02:46;4.07;;;1.73;;
64887;SDS011;51386;53.082;8.816;2022-07-23T01:05:14;3.57;;;1.80;;
64887;SDS011;51386;53.082;8.816;2022-07-23T01:07:42;4.07;;;2.13;;
64887;SDS011;51386;53.082;8.816;2022-07-23T01:10:09;6.13;;;2.07;;
64887;SDS011;51386;53.082;8.816;2022-07-23T01:12:55;2.50;;;1.93;;
64887;SDS011;51386;53.082;8.816;2022-07-23T01:15:23;3.00;;;1.67;;
64887;SDS011;51386;53.082;8.816;2022-07-23T01:17:52;2.83;;;1.63;;
64887;SDS011;51386;53.082;8.816;2022-07-23T01:20:20;5.07;;;2.37;;
64887;SDS011;51386;53.082;8.816;2022-07-23T01:22:49;4.73;;;2.30;;
64887;SDS011;51386;53.082;8.816;2022-07-23T01:25:18;6.10;;;2.33;;
64887;SDS011;51386;53.082;8.816;2022-07-23T01:27:46;4.20;;;2.03;;
64887;SDS011;51386;53.082;8.816;2022-07-23T01:30:14;4.50;;;2.37;;
64887;SDS011;51386;53.082;8.816;2022-07-23T01:32:42;4.47;;;2.23;;
64887;SDS011;51386;53.082;8.816;2022-07-23T01:35:09;4.77;;;2.50;;
64887;SDS011;51386;53.082;8.816;2022-07-23T01:37:37;3.83;;;2.20;;
64887;SDS011;51386;53.082;8.816;2022-07-23T01:40:06;3.67;;;2.07;;
64887;SDS011;51386;53.082;8.816;2022-07-23T01:42:34;3.30;;;2.10;;
64887;SDS011;51386;53.082;8.816;2022-07-23T01:45:03;3.40;;;2.07;;
64887;SDS011;51386;53.082;8.816;2022-07-23T01:47:32;3.20;;;2.60;;
64887;SDS011;51386;53.082;8.816;2022-07-23T01:49:59;3.30;;;2.70;;
64887;SDS011;51386;53.082;8.816;2022-07-23T01:52:27;4.07;;;2.37;;
64887;SDS011;51386;53.082;8.816;2022-07-23T01:54:54;5.30;;;2.63;;
64887;SDS011;51386;53.082;8.816;2022-07-23T01:57:23;5.53;;;2.20;;
64887;SDS011;51386;53.082;8.816;2022-07-23T01:59:50;3.13;;;1.97;;
64887;SDS011;51386;53.082;8.816;2022-07-23T02:02:17;3.73;;;2.17;;
64887;SDS011;51386;53.082;8.816;2022-07-23T02:04:45;3.17;;;2.20;;
64887;SDS011;51386;53.082;8.816;2022-07-23T02:07:12;3.97;;;2.07;;
64887;SDS011;51386;53.082;8.816;2022-07-23T02:09:40;5.43;;;2.27;;
64887;SDS011;51386;53.082;8.816;2022-07-23T02:12:07;2.93;;;1.63;;
64887;SDS011;51386;53.082;8.816;2022-07-23T02:14:36;5.53;;;2.20;;
64887;SDS011;51386;53.082;8.816;2022-07-23T02:17:04;4.43;;;2.20;;
64887;SDS011;51386;53.082;8.816;2022-07-23T02:19:32;2.40;;;1.80;;
64887;SDS011;51386;53.082;8.816;2022-07-23T02:21:59;2.47;;;1.80;;
64887;SDS011;51386;53.082;8.816;2022-07-23T02:24:26;4.80;;;2.50;;
64887;SDS011;51386;53.082;8.816;2022-07-23T02:26:54;6.83;;;2.00;;
64887;SDS011;51386;53.082;8.816;2022-07-23T02:29:21;4.57;;;2.20;;
64887;SDS011;51386;53.082;8.816;2022-07-23T02:31:50;4.53;;;2.47;;
64887;SDS011;51386;53.082;8.816;2022-07-23T02:34:17;2.73;;;2.00;;
64887;SDS011;51386;53.082;8.816;2022-07-23T02:36:45;3.23;;;1.97;;
64887;SDS011;51386;53.082;8.816;2022-07-23T02:39:12;4.60;;;2.10;;
64887;SDS011;51386;53.082;8.816;2022-07-23T02:41:40;3.03;;;1.80;;
64887;SDS011;51386;53.082;8.816;2022-07-23T02:44:08;2.77;;;2.20;;
64887;SDS011;51386;53.082;8.816;2022-07-23T02:46:35;7.23;;;2.20;;
64887;SDS011;51386;53.082;8.816;2022-07-23T02:49:04;2.83;;;2.20;;
64887;SDS011;51386;53.082;8.816;2022-07-23T02:51:32;3.67;;;2.00;;
64887;SDS011;51386;53.082;8.816;2022-07-23T02:53:59;7.00;;;2.03;;
64887;SDS011;51386;53.082;8.816;2022-07-23T02:56:27;7.40;;;2.50;;
64887;SDS011;51386;53.082;8.816;2022-07-23T02:58:54;6.53;;;2.63;;
64887;SDS011;51386;53.082;8.816;2022-07-23T03:01:22;4.40;;;2.70;;
64887;SDS011;51386;53.082;8.816;2022-07-23T03:03:49;5.37;;;2.40;;
64887;SDS011;51386;53.082;8.816;2022-07-23T03:06:18;6.73;;;2.83;;
64887;SDS011;51386;53.082;8.816;2022-07-23T03:08:46;3.30;;;3.00;;
64887;SDS011;51386;53.082;8.816;2022-07-23T03:11:13;6.03;;;2.43;;
64887;SDS011;51386;53.082;8.816;2022-07-23T03:13:43;7.47;;;3.20;;
64887;SDS011;51386;53.082;8.816;2022-07-23T03:16:10;3.87;;;2.67;;
64887;SDS011;51386;53.082;8.816;2022-07-23T03:18:38;6.07;;;2.97;;
64887;SDS011;51386;53.082;8.816;2022-07-23T03:21:06;3.20;;;2.50;;
64887;SDS011;51386;53.082;8.816;2022-07-23T03:23:35;3.57;;;3.00;;
64887;SDS011;51386;53.082;8.816;2022-07-23T03:26:03;5.03;;;2.40;;
64887;SDS011;51386;53.082;8.816;2022-07-23T03:28:31;3.23;;;2.57;;
64887;SDS011;51386;53.082;8.816;2022-07-23T03:30:58;3.57;;;2.80;;
64887;SDS011;51386;53.082;8.816;2022-07-23T03:33:26;4.20;;;2.50;;
64887;SDS011;51386;53.082;8.816;2022-07-23T03:35:53;3.10;;;2.57;;
64887;SDS011;51386;53.082;8.816;2022-07-23T03:38:21;4.40;;;2.53;;
64887;SDS011;51386;53.082;8.816;2022-07-23T03:40:50;3.03;;;2.33;;
64887;SDS011;51386;53.082;8.816;2022-07-23T03:43:18;4.83;;;2.30;;
64887;SDS011;51386;53.082;8.816;2022-07-23T03:45:45;6.73;;;2.67;;
64887;SDS011;51386;53.082;8.816;2022-07-23T03:48:15;4.10;;;2.27;;
64887;SDS011;51386;53.082;8.816;2022-07-23T03:50:42;4.33;;;2.77;;
64887;SDS011;51386;53.082;8.816;2022-07-23T03:53:09;8.93;;;2.40;;
64887;SDS011;51386;53.082;8.816;2022-07-23T03:55:37;3.47;;;2.20;;
64887;SDS011;51386;53.082;8.816;2022-07-23T03:58:06;4.50;;;2.20;;
64887;SDS011;51386;53.082;8.816;2022-07-23T04:00:33;4.93;;;2.10;;
64887;SDS011;51386;53.082;8.816;2022-07-23T04:03:00;3.33;;;2.30;;
64887;SDS011;51386;53.082;8.816;2022-07-23T04:05:28;6.33;;;2.17;;
64887;SDS011;51386;53.082;8.816;2022-07-23T04:07:55;3.73;;;2.40;;
64887;SDS011;51386;53.082;8.816;2022-07-23T04:10:22;2.80;;;2.13;;
64887;SDS011;51386;53.082;8.816;2022-07-23T04:12:50;4.20;;;2.30;;
64887;SDS011;51386;53.082;8.816;2022-07-23T04:15:19;3.67;;;2.20;;
64887;SDS011;51386;53.082;8.816;2022-07-23T04:17:46;3.60;;;2.10;;
64887;SDS011;51386;53.082;8.816;2022-07-23T04:20:13;4.87;;;2.30;;
64887;SDS011;51386;53.082;8.816;2022-07-23T04:22:41;4.00;;;2.30;;
64887;SDS011;51386;53.082;8.816;2022-07-23T04:25:08;3.33;;;2.17;;
64887;SDS011;51386;53.082;8.816;2022-07-23T04:27:35;4.63;;;2.80;;
64887;SDS011;51386;53.082;8.816;2022-07-23T04:30:03;3.73;;;2.40;;
64887;SDS011;51386;53.082;8.816;2022-07-23T04:32:33;4.77;;;2.77;;
64887;SDS011;51386;53.082;8.816;2022-07-23T04:35:01;4.37;;;2.63;;
64887;SDS011;51386;53.082;8.816;2022-07-23T04:37:28;5.53;;;3.00;;
64887;SDS011;51386;53.082;8.816;2022-07-23T04:39:56;2.93;;;2.67;;
64887;SDS011;51386;53.082;8.816;2022-07-23T04:42:23;4.63;;;3.00;;
64887;SDS011;51386;53.082;8.816;2022-07-23T04:44:50;5.23;;;2.60;;
64887;SDS011;51386;53.082;8.816;2022-07-23T04:47:18;6.30;;;3.23;;
64887;SDS011;51386;53.082;8.816;2022-07-23T04:49:49;3.47;;;2.87;;
64887;SDS011;51386;53.082;8.816;2022-07-23T04:52:16;4.17;;;2.60;;
64887;SDS011;51386;53.082;8.816;2022-07-23T04:54:44;7.27;;;3.10;;
64887;SDS011;51386;53.082;8.816;2022-07-23T04:57:11;5.37;;;2.63;;
64887;SDS011;51386;53.082;8.816;2022-07-23T04:59:38;6.77;;;2.83;;
64887;SDS011;51386;53.082;8.816;2022-07-23T05:02:06;3.20;;;2.50;;
64887;SDS011;51386;53.082;8.816;2022-07-23T05:04:33;6.77;;;3.10;;
64887;SDS011;51386;53.082;8.816;2022-07-23T05:07:02;2.97;;;2.70;;
64887;SDS011;51386;53.082;8.816;2022-07-23T05:09:30;4.20;;;3.27;;
64887;SDS011;51386;53.082;8.816;2022-07-23T05:11:57;4.13;;;2.97;;
64887;SDS011;51386;53.082;8.816;2022-07-23T05:14:25;5.50;;;3.20;;
64887;SDS011;51386;53.082;8.816;2022-07-23T05:16:52;4.13;;;2.97;;
64887;SDS011;51386;53.082;8.816;2022-07-23T05:19:20;3.80;;;2.90;;
64887;SDS011;51386;53.082;8.816;2022-07-23T05:21:50;4.43;;;2.80;;
64887;SDS011;51386;53.082;8.816;2022-07-23T05:24:19;4.77;;;2.90;;
64887;SDS011;51386;53.082;8.816;2022-07-23T05:26:47;4.63;;;2.60;;
64887;SDS011;51386;53.082;8.816;2022-07-23T05:29:14;4.47;;;2.70;;
64887;SDS011;51386;53.082;8.816;2022-07-23T05:31:41;4.97;;;2.63;;
64887;SDS011;51386;53.082;8.816;2022-07-23T05:34:11;4.80;;;2.60;;
64887;SDS011;51386;53.082;8.816;2022-07-23T05:36:43;6.47;;;2.37;;
64887;SDS011;51386;53.082;8.816;2022-07-23T05:39:10;4.27;;;2.60;;
64887;SDS011;51386;53.082;8.816;2022-07-23T05:41:39;5.50;;;3.67;;
64887;SDS011;51386;53.082;8.816;2022-07-23T05:44:08;3.80;;;2.53;;
64887;SDS011;51386;53.082;8.816;2022-07-23T05:46:35;4.30;;;2.53;;
64887;SDS011;51386;53.082;8.816;2022-07-23T05:49:03;5.27;;;2.50;;
64887;SDS011;51386;53.082;8.816;2022-07-23T05:51:31;3.70;;;2.30;;
64887;SDS011;51386;53.082;8.816;2022-07-23T05:53:59;2.70;;;2.50;;
64887;SDS011;51386;53.082;8.816;2022-07-23T05:56:26;3.30;;;2.60;;
64887;SDS011;51386;53.082;8.816;2022-07-23T05:58:55;4.83;;;2.90;;
64887;SDS011;51386;53.082;8.816;2022-07-23T06:01:22;4.40;;;2.30;;
64887;SDS011;51386;53.082;8.816;2022-07-23T06:03:50;2.37;;;2.17;;
64887;SDS011;51386;53.082;8.816;2022-07-23T06:06:17;4.17;;;2.30;;
64887;SDS011;51386;53.082;8.816;2022-07-23T06:08:44;3.23;;;2.10;;
64887;SDS011;51386;53.082;8.816;2022-07-23T06:11:12;2.20;;;1.73;;
64887;SDS011;51386;53.082;8.816;2022-07-23T06:13:39;7.03;;;1.93;;
64887;SDS011;51386;53.082;8.816;2022-07-23T06:16:08;2.83;;;2.10;;
64887;SDS011;51386;53.082;8.816;2022-07-23T06:18:36;3.27;;;2.07;;
64887;SDS011;51386;53.082;8.816;2022-07-23T06:21:03;4.30;;;1.70;;
64887;SDS011;51386;53.082;8.816;2022-07-23T06:23:51;2.17;;;1.60;;
64887;SDS011;51386;53.082;8.816;2022-07-23T06:26:18;4.97;;;2.30;;
64887;SDS011;51386;53.082;8.816;2022-07-23T06:28:45;2.40;;;2.20;;
64887;SDS011;51386;53.082;8.816;2022-07-23T06:31:14;3.40;;;1.80;;
64887;SDS011;51386;53.082;8.816;2022-07-23T06:33:41;6.07;;;2.17;;
64887;SDS011;51386;53.082;8.816;2022-07-23T06:36:10;2.87;;;2.10;;
64887;SDS011;51386;53.082;8.816;2022-07-23T06:38:37;2.37;;;1.60;;
64887;SDS011;51386;53.082;8.816;2022-07-23T06:41:04;9.90;;;2.47;;
64887;SDS011;51386;53.082;8.816;2022-07-23T06:43:32;4.20;;;2.00;;
64887;SDS011;51386;53.082;8.816;2022-07-23T06:45:59;4.20;;;1.73;;
64887;SDS011;51386;53.082;8.816;2022-07-23T06:48:28;2.63;;;2.03;;
64887;SDS011;51386;53.082;8.816;2022-07-23T06:50:55;5.37;;;2.47;;
64887;SDS011;51386;53.082;8.816;2022-07-23T06:53:23;2.63;;;1.70;;
64887;SDS011;51386;53.082;8.816;2022-07-23T06:55:50;4.60;;;1.87;;
64887;SDS011;51386;53.082;8.816;2022-07-23T06:58:17;2.87;;;1.77;;
64887;SDS011;51386;53.082;8.816;2022-07-23T07:00:45;5.40;;;2.20;;
64887;SDS011;51386;53.082;8.816;2022-07-23T07:03:13;2.57;;;1.70;;
64887;SDS011;51386;53.082;8.816;2022-07-23T07:05:44;2.63;;;1.70;;
64887;SDS011;51386;53.082;8.816;2022-07-23T07:08:12;3.67;;;2.47;;
64887;SDS011;51386;53.082;8.816;2022-07-23T07:10:39;3.13;;;1.53;;
64887;SDS011;51386;53.082;8.816;2022-07-23T07:13:06;3.70;;;1.70;;
64887;SDS011;51386;53.082;8.816;2022-07-23T07:15:34;2.80;;;1.37;;
64887;SDS011;51386;53.082;8.816;2022-07-23T07:18:02;2.00;;;1.33;;
64887;SDS011;51386;53.082;8.816;2022-07-23T07:20:29;2.23;;;1.40;;
64887;SDS011;51386;53.082;8.816;2022-07-23T07:22:58;2.17;;;1.57;;
64887;SDS011;51386;53.082;8.816;2022-07-23T07:25:25;1.47;;;1.30;;
64887;SDS011;51386;53.082;8.816;2022-07-23T07:27:53;1.97;;;1.50;;
64887;SDS011;51386;53.082;8.816;2022-07-23T07:30:21;2.73;;;1.70;;
64887;SDS011;51386;53.082;8.816;2022-07-23T07:32:48;2.27;;;1.47;;
64887;SDS011;51386;53.082;8.816;2022-07-23T07:35:22;1.60;;;1.50;;
64887;SDS011;51386;53.082;8.816;2022-07-23T07:37:50;3.27;;;1.97;;
64887;SDS011;51386;53.082;8.816;2022-07-23T07:40:19;2.37;;;1.60;;
64887;SDS011;51386;53.082;8.816;2022-07-23T07:42:47;2.03;;;1.40;;
64887;SDS011;51386;53.082;8.816;2022-07-23T07:45:15;3.13;;;1.23;;
64887;SDS011;51386;53.082;8.816;2022-07-23T07:47:43;1.23;;;1.07;;
64887;SDS011;51386;53.082;8.816;2022-07-23T07:50:11;2.70;;;1.87;;
64887;SDS011;51386;53.082;8.816;2022-07-23T07:52:39;3.53;;;2.20;;
64887;SDS011;51386;53.082;8.816;2022-07-23T07:55:07;2.43;;;2.13;;
64887;SDS011;51386;53.082;8.816;2022-07-23T07:57:37;2.63;;;1.70;;
64887;SDS011;51386;53.082;8.816;2022-07-23T08:00:06;3.33;;;1.63;;
64887;SDS011;51386;53.082;8.816;2022-07-23T08:02:40;3.13;;;1.40;;
64887;SDS011;51386;53.082;8.816;2022-07-23T08:05:10;2.07;;;1.50;;
64887;SDS011;51386;53.082;8.816;2022-07-23T08:07:38;3.13;;;1.50;;
64887;SDS011;51386;53.082;8.816;2022-07-23T08:10:06;1.83;;;1.70;;
64887;SDS011;51386;53.082;8.816;2022-07-23T08:12:42;2.83;;;1.60;;
64887;SDS011;51386;53.082;8.816;2022-07-23T08:15:11;2.60;;;1.87;;
64887;SDS011;51386;53.082;8.816;2022-07-23T08:17:40;3.17;;;2.20;;
64887;SDS011;51386;53.082;8.816;2022-07-23T08:20:10;3.00;;;1.93;;
64887;SDS011;51386;53.082;8.816;2022-07-23T08:22:43;2.30;;;1.50;;
64887;SDS011;51386;53.082;8.816;2022-07-23T08:25:14;3.33;;;1.67;;
64887;SDS011;51386;53.082;8.816;2022-07-23T08:27:43;1.17;;;1.03;;
64887;SDS011;51386;53.082;8.816;2022-07-23T08:30:11;2.70;;;1.60;;
64887;SDS011;51386;53.082;8.816;2022-07-23T08:32:51;1.80;;;1.57;;
64887;SDS011;51386;53.082;8.816;2022-07-23T08:35:22;2.20;;;1.63;;
64887;SDS011;51386;53.082;8.816;2022-07-23T08:37:53;2.63;;;1.50;;
64887;SDS011;51386;53.082;8.816;2022-07-23T08:40:21;2.90;;;1.80;;
64887;SDS011;51386;53.082;8.816;2022-07-23T08:42:52;3.63;;;1.73;;
64887;SDS011;51386;53.082;8.816;2022-07-23T08:45:21;1.90;;;1.50;;
64887;SDS011;51386;53.082;8.816;2022-07-23T08:47:51;3.33;;;1.50;;
64887;SDS011;51386;53.082;8.816;2022-07-23T08:50:23;5.83;;;1.50;;
64887;SDS011;51386;53.082;8.816;2022-07-23T08:52:51;2.67;;;1.63;;
64887;SDS011;51386;53.082;8.816;2022-07-23T08:55:20;2.77;;;1.33;;
64887;SDS011;51386;53.082;8.816;2022-07-23T08:57:49;1.27;;;1.10;;
64887;SDS011;51386;53.082;8.816;2022-07-23T09:00:20;3.70;;;1.30;;
64887;SDS011;51386;53.082;8.816;2022-07-23T09:02:49;1.77;;;1.20;;
64887;SDS011;51386;53.082;8.816;2022-07-23T09:05:17;1.23;;;1.13;;
64887;SDS011;51386;53.082;8.816;2022-07-23T09:08:04;2.17;;;1.30;;
64887;SDS011;51386;53.082;8.816;2022-07-23T09:10:47;1.80;;;1.70;;
64887;SDS011;51386;53.082;8.816;2022-07-23T09:13:32;2.40;;;2.03;;
64887;SDS011;51386;53.082;8.816;2022-07-23T09:16:04;1.70;;;1.37;;
64887;SDS011;51386;53.082;8.816;2022-07-23T09:18:36;2.00;;;1.33;;
64887;SDS011;51386;53.082;8.816;2022-07-23T09:21:10;2.50;;;1.77;;
64887;SDS011;51386;53.082;8.816;2022-07-23T09:23:44;1.27;;;1.07;;
64887;SDS011;51386;53.082;8.816;2022-07-23T09:29:11;1.77;;;1.00;;
64887;SDS011;51386;53.082;8.816;2022-07-23T09:31:44;1.40;;;0.80;;
64887;SDS011;51386;53.082;8.816;2022-07-23T09:34:16;2.43;;;1.10;;
64887;SDS011;51386;53.082;8.816;2022-07-23T09:36:49;1.57;;;1.10;;
64887;SDS011;51386;53.082;8.816;2022-07-23T09:39:24;3.43;;;1.10;;
64887;SDS011;51386;53.082;8.816;2022-07-23T09:41:55;1.60;;;1.10;;
64887;SDS011;51386;53.082;8.816;2022-07-23T09:44:25;0.90;;;0.80;;
64887;SDS011;51386;53.082;8.816;2022-07-23T09:46:57;2.30;;;1.47;;
64887;SDS011;51386;53.082;8.816;2022-07-23T09:49:27;2.47;;;1.00;;
64887;SDS011;51386;53.082;8.816;2022-07-23T09:51:56;1.70;;;0.80;;
64887;SDS011;51386;53.082;8.816;2022-07-23T09:54:26;1.20;;;0.87;;
64887;SDS011;51386;53.082;8.816;2022-07-23T09:57:00;1.23;;;1.03;;
64887;SDS011;51386;53.082;8.816;2022-07-23T09:59:33;1.77;;;1.60;;
64887;SDS011;51386;53.082;8.816;2022-07-23T10:02:03;2.43;;;1.30;;
64887;SDS011;51386;53.082;8.816;2022-07-23T10:04:33;1.10;;;0.90;;
64887;SDS011;51386;53.082;8.816;2022-07-23T10:07:04;1.37;;;0.80;;
64887;SDS011;51386;53.082;8.816;2022-07-23T10:09:35;1.00;;;1.00;;
64887;SDS011;51386;53.082;8.816;2022-07-23T10:12:06;1.70;;;1.00;;
64887;SDS011;51386;53.082;8.816;2022-07-23T10:14:42;2.80;;;1.30;;
64887;SDS011;51386;53.082;8.816;2022-07-23T10:17:10;1.03;;;0.90;;
64887;SDS011;51386;53.082;8.816;2022-07-23T10:19:37;0.60;;;0.60;;
64887;SDS011;51386;53.082;8.816;2022-07-23T10:22:06;1.07;;;0.90;;
64887;SDS011;51386;53.082;8.816;2022-07-23T10:24:41;1.90;;;1.20;;
64887;SDS011;51386;53.082;8.816;2022-07-23T10:30:36;1.10;;;0.80;;
64887;SDS011;51386;53.082;8.816;2022-07-23T10:33:18;0.80;;;0.73;;
64887;SDS011;51386;53.082;8.816;2022-07-23T10:36:04;2.03;;;1.00;;
64887;SDS011;51386;53.082;8.816;2022-07-23T10:38:43;0.80;;;0.77;;
64887;SDS011;51386;53.082;8.816;2022-07-23T10:41:30;1.70;;;1.03;;
64887;SDS011;51386;53.082;8.816;2022-07-23T10:44:06;1.10;;;1.00;;
64887;SDS011;51386;53.082;8.816;2022-07-23T10:46:57;1.63;;;1.17;;
64887;SDS011;51386;53.082;8.816;2022-07-23T10:49:44;2.00;;;0.90;;
64887;SDS011;51386;53.082;8.816;2022-07-23T10:52:15;0.70;;;0.70;;
64887;SDS011;51386;53.082;8.816;2022-07-23T10:54:54;1.23;;;1.00;;
64887;SDS011;51386;53.082;8.816;2022-07-23T10:57:48;1.80;;;1.20;;
64887;SDS011;51386;53.082;8.816;2022-07-23T11:00:20;3.40;;;2.40;;
64887;SDS011;51386;53.082;8.816;2022-07-23T11:02:51;1.43;;;1.07;;
64887;SDS011;51386;53.082;8.816;2022-07-23T11:05:21;2.40;;;1.00;;
64887;SDS011;51386;53.082;8.816;2022-07-23T11:10:44;1.37;;;1.27;;
64887;SDS011;51386;53.082;8.816;2022-07-23T11:13:30;1.17;;;0.90;;
64887;SDS011;51386;53.082;8.816;2022-07-23T11:16:22;2.70;;;0.90;;
64887;SDS011;51386;53.082;8.816;2022-07-23T11:21:45;1.77;;;1.13;;
64887;SDS011;51386;53.082;8.816;2022-07-23T11:24:18;1.30;;;0.80;;
64887;SDS011;51386;53.082;8.816;2022-07-23T11:26:49;1.17;;;1.00;;
64887;SDS011;51386;53.082;8.816;2022-07-23T11:32:32;2.00;;;1.20;;
64887;SDS011;51386;53.082;8.816;2022-07-23T11:35:23;0.93;;;0.90;;
64887;SDS011;51386;53.082;8.816;2022-07-23T11:37:54;2.90;;;1.03;;
64887;SDS011;51386;53.082;8.816;2022-07-23T11:40:33;1.43;;;0.90;;
64887;SDS011;51386;53.082;8.816;2022-07-23T11:43:02;0.60;;;0.60;;
64887;SDS011;51386;53.082;8.816;2022-07-23T11:45:35;0.97;;;0.60;;
64887;SDS011;51386;53.082;8.816;2022-07-23T11:48:06;1.77;;;0.77;;
64887;SDS011;51386;53.082;8.816;2022-07-23T11:50:37;1.80;;;1.10;;
64887;SDS011;51386;53.082;8.816;2022-07-23T11:53:04;1.20;;;1.10;;
64887;SDS011;51386;53.082;8.816;2022-07-23T11:55:32;1.23;;;1.00;;
64887;SDS011;51386;53.082;8.816;2022-07-23T11:57:59;1.20;;;1.00;;
64887;SDS011;51386;53.082;8.816;2022-07-23T12:00:28;1.10;;;0.83;;
64887;SDS011;51386;53.082;8.816;2022-07-23T12:03:05;1.63;;;1.00;;
64887;SDS011;51386;53.082;8.816;2022-07-23T12:05:34;1.20;;;1.10;;
64887;SDS011;51386;53.082;8.816;2022-07-23T12:08:05;1.60;;;1.47;;
64887;SDS011;51386;53.082;8.816;2022-07-23T12:10:35;1.50;;;1.33;;
64887;SDS011;51386;53.082;8.816;2022-07-23T12:13:05;1.60;;;1.17;;
64887;SDS011;51386;53.082;8.816;2022-07-23T12:15:39;2.57;;;1.30;;
64887;SDS011;51386;53.082;8.816;2022-07-23T12:18:09;3.60;;;1.70;;
64887;SDS011;51386;53.082;8.816;2022-07-23T12:20:40;1.50;;;1.40;;
64887;SDS011;51386;53.082;8.816;2022-07-23T12:23:11;6.00;;;2.00;;
64887;SDS011;51386;53.082;8.816;2022-07-23T12:25:47;3.37;;;1.40;;
64887;SDS011;51386;53.082;8.816;2022-07-23T12:28:17;1.30;;;1.20;;
64887;SDS011;51386;53.082;8.816;2022-07-23T12:30:47;2.93;;;1.20;;
64887;SDS011;51386;53.082;8.816;2022-07-23T12:33:21;3.90;;;1.83;;
64887;SDS011;51386;53.082;8.816;2022-07-23T12:35:52;2.20;;;1.00;;
64887;SDS011;51386;53.082;8.816;2022-07-23T12:38:22;1.80;;;1.70;;
64887;SDS011;51386;53.082;8.816;2022-07-23T12:40:52;2.30;;;1.87;;
64887;SDS011;51386;53.082;8.816;2022-07-23T12:43:23;3.47;;;1.97;;
64887;SDS011;51386;53.082;8.816;2022-07-23T12:45:54;3.60;;;1.53;;
64887;SDS011;51386;53.082;8.816;2022-07-23T12:48:30;3.17;;;2.00;;
64887;SDS011;51386;53.082;8.816;2022-07-23T12:51:02;5.00;;;1.30;;
64887;SDS011;51386;53.082;8.816;2022-07-23T12:53:32;2.13;;;1.40;;
64887;SDS011;51386;53.082;8.816;2022-07-23T12:56:06;2.43;;;1.30;;
64887;SDS011;51386;53.082;8.816;2022-07-23T12:58:45;1.50;;;1.20;;
64887;SDS011;51386;53.082;8.816;2022-07-23T13:01:26;2.07;;;1.20;;
64887;SDS011;51386;53.082;8.816;2022-07-23T13:03:59;1.13;;;1.10;;
64887;SDS011;51386;53.082;8.816;2022-07-23T13:06:40;1.23;;;1.10;;
64887;SDS011;51386;53.082;8.816;2022-07-23T13:09:11;2.67;;;1.00;;
64887;SDS011;51386;53.082;8.816;2022-07-23T13:11:41;1.67;;;1.30;;
64887;SDS011;51386;53.082;8.816;2022-07-23T13:14:10;2.93;;;1.27;;
64887;SDS011;51386;53.082;8.816;2022-07-23T13:16:39;1.13;;;0.73;;
64887;SDS011;51386;53.082;8.816;2022-07-23T13:19:08;1.23;;;0.90;;
64887;SDS011;51386;53.082;8.816;2022-07-23T13:21:38;1.97;;;1.20;;
64887;SDS011;51386;53.082;8.816;2022-07-23T13:24:08;1.27;;;1.17;;
64887;SDS011;51386;53.082;8.816;2022-07-23T13:26:36;2.53;;;1.37;;
64887;SDS011;51386;53.082;8.816;2022-07-23T13:29:04;3.90;;;1.10;;
64887;SDS011;51386;53.082;8.816;2022-07-23T13:31:36;1.07;;;0.93;;
64887;SDS011;51386;53.082;8.816;2022-07-23T13:34:05;1.53;;;1.00;;
64887;SDS011;51386;53.082;8.816;2022-07-23T13:36:33;2.27;;;1.30;;
64887;SDS011;51386;53.082;8.816;2022-07-23T13:39:03;2.77;;;1.50;;
64887;SDS011;51386;53.082;8.816;2022-07-23T13:41:35;1.30;;;0.90;;
64887;SDS011;51386;53.082;8.816;2022-07-23T13:44:04;1.33;;;1.23;;
64887;SDS011;51386;53.082;8.816;2022-07-23T13:46:32;1.77;;;1.30;;
64887;SDS011;51386;53.082;8.816;2022-07-23T13:49:01;2.90;;;1.10;;
64887;SDS011;51386;53.082;8.816;2022-07-23T13:51:29;1.37;;;1.27;;
64887;SDS011;51386;53.082;8.816;2022-07-23T13:53:57;1.30;;;1.13;;
64887;SDS011;51386;53.082;8.816;2022-07-23T13:56:27;1.60;;;1.07;;
64887;SDS011;51386;53.082;8.816;2022-07-23T13:58:54;4.10;;;1.07;;
64887;SDS011;51386;53.082;8.816;2022-07-23T14:01:24;1.43;;;1.03;;
64887;SDS011;51386;53.082;8.816;2022-07-23T14:03:56;2.20;;;1.40;;
64887;SDS011;51386;53.082;8.816;2022-07-23T14:06:24;2.50;;;1.63;;
64887;SDS011;51386;53.082;8.816;2022-07-23T14:08:58;3.73;;;1.40;;
64887;SDS011;51386;53.082;8.816;2022-07-23T14:11:28;1.33;;;1.23;;
64887;SDS011;51386;53.082;8.816;2022-07-23T14:13:57;2.27;;;0.90;;
64887;SDS011;51386;53.082;8.816;2022-07-23T14:16:25;2.87;;;1.30;;
64887;SDS011;51386;53.082;8.816;2022-07-23T14:18:52;1.43;;;1.00;;
64887;SDS011;51386;53.082;8.816;2022-07-23T14:21:20;2.10;;;1.40;;
64887;SDS011;51386;53.082;8.816;2022-07-23T14:23:48;1.93;;;1.00;;
64887;SDS011;51386;53.082;8.816;2022-07-23T14:26:15;1.30;;;1.20;;
64887;SDS011;51386;53.082;8.816;2022-07-23T14:28:44;2.67;;;1.23;;
64887;SDS011;51386;53.082;8.816;2022-07-23T14:31:14;1.30;;;1.20;;
64887;SDS011;51386;53.082;8.816;2022-07-23T14:33:47;5.00;;;1.17;;
64887;SDS011;51386;53.082;8.816;2022-07-23T14:36:15;1.10;;;0.80;;
64887;SDS011;51386;53.082;8.816;2022-07-23T14:38:42;0.87;;;0.80;;
64887;SDS011;51386;53.082;8.816;2022-07-23T14:41:10;3.50;;;1.03;;
64887;SDS011;51386;53.082;8.816;2022-07-23T14:43:37;2.10;;;1.10;;
64887;SDS011;51386;53.082;8.816;2022-07-23T14:46:06;1.57;;;1.20;;
64887;SDS011;51386;53.082;8.816;2022-07-23T14:48:34;1.50;;;1.17;;
64887;SDS011;51386;53.082;8.816;2022-07-23T14:51:03;3.97;;;1.90;;
64887;SDS011;51386;53.082;8.816;2022-07-23T14:53:30;1.70;;;1.30;;
64887;SDS011;51386;53.082;8.816;2022-07-23T14:55:58;2.80;;;1.27;;
64887;SDS011;51386;53.082;8.816;2022-07-23T14:58:25;2.50;;;2.10;;
64887;SDS011;51386;53.082;8.816;2022-07-23T15:00:53;2.13;;;1.63;;
64887;SDS011;51386;53.082;8.816;2022-07-23T15:03:22;0.97;;;0.90;;
64887;SDS011;51386;53.082;8.816;2022-07-23T15:06:06;1.20;;;1.10;;
64887;SDS011;51386;53.082;8.816;2022-07-23T15:08:34;3.77;;;1.90;;
64887;SDS011;51386;53.082;8.816;2022-07-23T15:11:01;2.00;;;1.87;;
64887;SDS011;51386;53.082;8.816;2022-07-23T15:13:28;3.53;;;1.20;;
64887;SDS011;51386;53.082;8.816;2022-07-23T15:15:57;1.73;;;1.63;;
64887;SDS011;51386;53.082;8.816;2022-07-23T15:18:29;2.67;;;1.50;;